createdAt,value
2019-04-27T00:01:10.454Z,12.30
2019-04-27T00:03:45.940Z,12.30
2019-04-27T00:06:16.166Z,12.30
2019-04-27T00:08:58.209Z,12.30
2019-04-27T00:11:31.022Z,12.30
2019-04-27T00:14:00.250Z,12.30
2019-04-27T00:16:55.954Z,12.30
2019-04-27T00:19:43.813Z,12.30
2019-04-27T00:22:30.910Z,12.30
2019-04-27T00:25:00.533Z,12.20
2019-04-27T00:27:29.680Z,12.20
2019-04-27T00:29:59.024Z,12.20
2019-04-27T00:32:28.280Z,12.20
2019-04-27T00:34:57.287Z,12.20
2019-04-27T00:37:44.807Z,12.20
2019-04-27T00:40:24.006Z,12.20
2019-04-27T00:42:54.182Z,12.10
2019-04-27T00:45:26.452Z,12.20
2019-04-27T00:47:59.442Z,12.10
2019-04-27T00:50:26.546Z,12.10
2019-04-27T00:52:55.597Z,12.10
2019-04-27T00:55:24.389Z,12.10
2019-04-27T00:58:05.418Z,12.10
2019-04-27T01:01:05.473Z,12.10
2019-04-27T01:03:46.866Z,12.10
2019-04-27T01:06:15.647Z,12.10
2019-04-27T01:08:45.010Z,12.00
2019-04-27T01:11:14.237Z,12.00
2019-04-27T01:13:43.654Z,11.90
2019-04-27T01:16:15.613Z,11.90
2019-04-27T01:18:44.755Z,11.90
2019-04-27T01:21:14.446Z,11.80
2019-04-27T01:23:43.520Z,11.80
2019-04-27T01:26:30.251Z,11.70
2019-04-27T01:29:06.091Z,11.70
2019-04-27T01:31:35.050Z,11.60
2019-04-27T01:34:04.294Z,11.50
2019-04-27T01:36:33.800Z,11.50
2019-04-27T01:39:04.155Z,11.50
2019-04-27T01:41:33.019Z,11.40
2019-04-27T01:44:03.580Z,11.40
2019-04-27T01:46:32.402Z,11.40
2019-04-27T01:49:02.168Z,11.40
2019-04-27T01:51:31.226Z,11.40
2019-04-27T01:54:00.066Z,11.40
2019-04-27T01:56:29.527Z,11.30
2019-04-27T01:58:59.550Z,11.30
2019-04-27T02:01:45.869Z,11.40
2019-04-27T02:04:34.083Z,11.30
2019-04-27T02:07:05.780Z,11.30
2019-04-27T02:09:34.754Z,11.30
2019-04-27T02:12:03.868Z,11.30
2019-04-27T02:14:32.879Z,11.30
2019-04-27T02:17:01.743Z,11.30
2019-04-27T02:19:30.653Z,11.30
2019-04-27T02:21:59.812Z,11.30
2019-04-27T02:24:29.170Z,11.30
2019-04-27T02:26:58.752Z,11.30
2019-04-27T02:29:34.572Z,11.30
2019-04-27T02:32:11.513Z,11.30
2019-04-27T02:35:00.181Z,11.30
2019-04-27T02:37:30.587Z,11.30
2019-04-27T02:40:00.218Z,11.20
2019-04-27T02:42:34.829Z,11.20
2019-04-27T02:45:04.428Z,11.20
2019-04-27T02:47:33.700Z,11.20
2019-04-27T02:50:02.734Z,11.10
2019-04-27T02:52:42.546Z,11.10
2019-04-27T02:55:11.767Z,11.10
2019-04-27T02:57:40.667Z,11.10
2019-04-27T03:00:10.724Z,11.10
2019-04-27T03:02:44.226Z,11.00
2019-04-27T03:05:24.216Z,11.00
2019-04-27T03:07:53.511Z,11.00
2019-04-27T03:10:23.126Z,10.90
2019-04-27T03:13:00.117Z,10.90
2019-04-27T03:15:49.733Z,10.90
2019-04-27T03:18:32.909Z,10.90
2019-04-27T03:21:06.141Z,10.90
2019-04-27T03:23:35.046Z,10.90
2019-04-27T03:26:22.970Z,10.90
2019-04-27T03:28:53.158Z,10.90
2019-04-27T03:31:22.433Z,10.90
2019-04-27T03:33:58.678Z,10.90
2019-04-27T03:36:22.854Z,10.90
2019-04-27T03:38:52.522Z,10.90
2019-04-27T03:41:21.660Z,10.90
2019-04-27T03:43:51.666Z,10.90
2019-04-27T03:46:20.708Z,10.90
2019-04-27T03:48:49.938Z,10.90
2019-04-27T03:51:29.782Z,10.90
2019-04-27T03:54:03.341Z,10.90
2019-04-27T03:56:39.564Z,10.80
2019-04-27T03:59:16.171Z,10.80
2019-04-27T04:01:44.953Z,10.80
2019-04-27T04:04:14.100Z,10.80
2019-04-27T04:06:43.271Z,10.80
2019-04-27T04:09:12.899Z,10.80
2019-04-27T04:12:02.236Z,10.80
2019-04-27T04:14:31.702Z,10.80
2019-04-27T04:17:03.684Z,10.80
2019-04-27T04:19:47.973Z,10.80
2019-04-27T04:22:03.629Z,10.80
2019-04-27T04:24:32.687Z,10.80
2019-04-27T04:27:01.530Z,10.80
2019-04-27T04:29:30.873Z,10.90
2019-04-27T04:32:00.558Z,10.90
2019-04-27T04:34:30.070Z,10.90
2019-04-27T04:37:00.599Z,10.90
2019-04-27T04:39:30.059Z,10.90
2019-04-27T04:42:15.394Z,10.90
2019-04-27T04:45:17.336Z,10.90
2019-04-27T04:48:09.814Z,10.90
2019-04-27T04:50:39.759Z,10.90
2019-04-27T04:53:12.534Z,10.90
2019-04-27T04:55:39.703Z,10.90
2019-04-27T04:58:09.431Z,10.90
2019-04-27T05:00:40.048Z,10.90
2019-04-27T05:03:09.509Z,10.90
2019-04-27T05:05:41.082Z,10.90
2019-04-27T05:08:09.270Z,10.90
2019-04-27T05:10:39.463Z,11.10
2019-04-27T05:13:09.461Z,11.10
2019-04-27T05:15:39.487Z,11.20
2019-04-27T05:18:09.284Z,11.30
2019-04-27T05:20:54.721Z,11.40
2019-04-27T05:23:24.067Z,11.50
2019-04-27T05:25:53.200Z,11.60
2019-04-27T05:28:22.373Z,11.70
2019-04-27T05:30:51.717Z,11.80
2019-04-27T05:33:20.868Z,11.90
2019-04-27T05:35:50.030Z,12.00
2019-04-27T05:38:19.441Z,12.00
2019-04-27T05:40:49.942Z,12.00
2019-04-27T05:43:21.077Z,12.00
2019-04-27T05:46:39.655Z,12.10
2019-04-27T05:49:12.230Z,12.10
2019-04-27T05:51:42.034Z,12.20
2019-04-27T05:54:11.938Z,12.30
2019-04-27T05:56:40.888Z,12.40
2019-04-27T05:59:10.169Z,12.40
2019-04-27T06:01:39.264Z,12.40
2019-04-27T06:04:09.048Z,12.40
2019-04-27T06:06:39.875Z,12.40
2019-04-27T06:09:09.622Z,12.50
2019-04-27T06:11:40.007Z,12.50
2019-04-27T06:14:09.811Z,12.60
2019-04-27T06:16:39.460Z,12.70
2019-04-27T06:19:09.605Z,12.80
2019-04-27T06:21:40.118Z,12.80
2019-04-27T06:24:09.574Z,12.90
2019-04-27T06:26:39.956Z,12.90
2019-04-27T06:29:09.578Z,13.00
2019-04-27T06:31:39.656Z,13.00
2019-04-27T06:34:09.810Z,13.00
2019-04-27T06:36:39.157Z,13.10
2019-04-27T06:39:09.798Z,13.10
2019-04-27T06:41:40.043Z,13.20
2019-04-27T06:44:11.375Z,13.20
2019-04-27T06:46:40.698Z,13.20
2019-04-27T06:49:11.011Z,13.20
2019-04-27T06:51:40.763Z,13.30
2019-04-27T06:54:09.884Z,13.30
2019-04-27T06:56:39.027Z,13.30
2019-04-27T06:59:08.856Z,13.40
2019-04-27T07:01:39.106Z,13.40
2019-04-27T07:04:10.732Z,13.40
2019-04-27T07:06:52.506Z,13.40
2019-04-27T07:09:10.269Z,13.40
2019-04-27T07:11:39.847Z,13.40
2019-04-27T07:14:11.165Z,13.40
2019-04-27T07:16:39.779Z,13.40
2019-04-27T07:19:09.442Z,13.50
2019-04-27T07:21:39.959Z,13.50
2019-04-27T07:24:09.290Z,13.50
2019-04-27T07:26:39.060Z,13.60
2019-04-27T07:29:09.617Z,13.60
2019-04-27T07:31:40.131Z,13.70
2019-04-27T07:34:09.487Z,13.70
2019-04-27T07:36:39.323Z,13.70
2019-04-27T07:39:11.372Z,13.80
2019-04-27T07:41:40.206Z,13.90
2019-04-27T07:44:21.800Z,13.90
2019-04-27T07:47:09.724Z,14.00
2019-04-27T07:49:39.237Z,14.10
2019-04-27T07:52:08.744Z,14.10
2019-04-27T07:54:38.505Z,14.20
2019-04-27T07:57:09.856Z,14.20
2019-04-27T07:59:41.459Z,14.30
2019-04-27T08:02:11.015Z,14.40
2019-04-27T08:04:40.498Z,14.40
2019-04-27T08:07:09.617Z,14.50
2019-04-27T08:09:39.758Z,14.50
2019-04-27T08:12:10.735Z,14.60
2019-04-27T08:14:39.805Z,14.60
2019-04-27T08:17:09.783Z,14.70
2019-04-27T08:19:39.464Z,14.70
2019-04-27T08:22:09.653Z,14.80
2019-04-27T08:24:39.668Z,14.80
2019-04-27T09:34:46.778Z,15.80
2019-04-27T09:37:16.048Z,15.90
2019-04-27T09:39:46.063Z,15.90
2019-04-27T09:42:16.772Z,16.00
2019-04-27T09:44:47.630Z,16.10
2019-04-27T09:47:16.842Z,16.20
2019-04-27T09:49:46.165Z,16.40
2019-04-27T09:52:24.480Z,16.60
2019-04-27T09:54:48.062Z,16.70
2019-04-27T09:57:17.300Z,16.90
2019-04-27T09:59:46.727Z,17.00
2019-04-27T10:02:16.513Z,17.20
2019-04-27T10:04:46.198Z,17.30
2019-04-27T10:07:16.518Z,17.30
2019-04-27T10:09:47.491Z,17.50
2019-04-27T10:12:16.697Z,17.50
2019-04-27T10:14:47.704Z,17.70
2019-04-27T10:17:17.234Z,17.80
2019-04-27T10:19:46.201Z,17.80
2019-04-27T10:22:15.940Z,18.00
2019-04-27T10:24:45.725Z,18.10
2019-04-27T10:27:16.164Z,18.30
2019-04-27T10:29:46.807Z,18.50
2019-04-27T10:32:16.914Z,18.60
2019-04-27T10:34:45.778Z,18.70
2019-04-27T10:37:16.065Z,18.90
2019-04-27T10:39:46.176Z,19.00
2019-04-27T10:42:15.144Z,18.90
2019-04-27T10:44:46.092Z,18.70
2019-04-27T10:47:16.357Z,18.50
2019-04-27T10:50:05.924Z,18.40
2019-04-27T10:52:35.286Z,18.20
2019-04-27T10:55:05.996Z,18.30
2019-04-27T10:57:35.048Z,18.30
2019-04-27T11:00:06.780Z,18.30
2019-04-27T11:02:36.039Z,18.30
2019-04-27T11:05:13.072Z,18.30
2019-04-27T11:07:41.993Z,18.50
2019-04-27T11:10:12.046Z,18.60
2019-04-27T11:12:41.107Z,18.50
2019-04-27T11:15:11.442Z,18.50
2019-04-27T11:17:40.856Z,18.50
2019-04-27T11:20:10.526Z,18.50
2019-04-27T11:22:39.574Z,18.50
2019-04-27T11:25:08.722Z,18.30
2019-04-27T11:27:37.535Z,18.20
2019-04-27T11:30:07.676Z,18.10
2019-04-27T11:32:36.842Z,18.00
2019-04-27T11:35:31.766Z,17.90
2019-04-27T11:38:01.398Z,17.90
2019-04-27T11:40:31.118Z,17.90
2019-04-27T11:43:00.385Z,17.90
2019-04-27T11:45:29.533Z,17.90
2019-04-27T11:47:58.699Z,18.00
2019-04-27T11:50:28.246Z,18.00
2019-04-27T11:52:57.731Z,18.00
2019-04-27T11:55:27.348Z,17.90
2019-04-27T11:57:56.977Z,18.00
2019-04-27T12:00:27.672Z,18.10
2019-04-27T12:02:56.966Z,18.40
2019-04-27T12:05:26.124Z,18.40
2019-04-27T12:07:56.139Z,18.50
2019-04-27T12:10:26.293Z,18.70
2019-04-27T12:12:56.415Z,19.00
2019-04-27T12:15:26.217Z,19.00
2019-04-27T12:17:56.178Z,19.00
2019-04-27T12:20:25.880Z,19.00
2019-04-27T12:22:55.204Z,19.10
2019-04-27T12:25:24.052Z,19.10
2019-04-27T12:28:09.125Z,19.10
2019-04-27T12:30:54.198Z,19.10
2019-04-27T12:33:23.344Z,19.10
2019-04-27T12:35:52.491Z,19.20
2019-04-27T12:38:21.420Z,19.20
2019-04-27T12:40:50.689Z,19.10
2019-04-27T12:43:19.797Z,19.10
2019-04-27T12:45:50.862Z,19.10
2019-04-27T12:48:19.670Z,19.00
2019-04-27T12:50:48.957Z,18.90
2019-04-27T12:53:28.393Z,18.90
2019-04-27T12:56:25.927Z,18.70
2019-04-27T12:59:22.994Z,18.70
2019-04-27T13:01:52.370Z,18.70
2019-04-27T13:04:21.276Z,18.60
2019-04-27T13:06:50.398Z,18.70
2019-04-27T13:09:19.938Z,18.70
2019-04-27T13:11:49.303Z,18.70
2019-04-27T13:14:18.744Z,18.60
2019-04-27T13:16:48.035Z,18.50
2019-04-27T13:19:17.382Z,18.20
2019-04-27T13:21:46.964Z,18.00
2019-04-27T13:24:16.207Z,17.80
2019-04-27T13:26:45.871Z,17.50
2019-04-27T13:29:16.507Z,17.30
2019-04-27T13:31:45.282Z,17.10
2019-04-27T13:34:15.910Z,16.80
2019-04-27T13:36:45.803Z,16.60
2019-04-27T13:39:15.785Z,16.40
2019-04-27T13:41:46.312Z,16.20
2019-04-27T13:44:16.105Z,16.10
2019-04-27T13:47:03.614Z,16.00
2019-04-27T13:49:46.183Z,15.90
2019-04-27T13:52:17.692Z,15.80
2019-04-27T13:54:47.160Z,15.80
2019-04-27T13:57:18.357Z,15.80
2019-04-27T13:59:47.126Z,15.80
2019-04-27T14:02:16.213Z,15.80
2019-04-27T14:04:45.698Z,15.70
2019-04-27T14:07:14.600Z,15.70
2019-04-27T14:09:43.933Z,15.70
2019-04-27T14:12:22.084Z,15.70
2019-04-27T14:14:51.373Z,15.60
2019-04-27T14:17:20.782Z,15.70
2019-04-27T14:19:51.219Z,15.60
2019-04-27T14:22:20.301Z,15.60
2019-04-27T14:24:49.187Z,15.60
2019-04-27T14:27:19.872Z,15.60
2019-04-27T14:29:49.030Z,15.60
2019-04-27T14:32:18.798Z,15.60
2019-04-27T14:34:50.058Z,15.60
2019-04-27T14:37:19.240Z,15.60
2019-04-27T14:39:48.877Z,15.50
2019-04-27T14:42:19.187Z,15.50
2019-04-27T14:44:48.927Z,15.50
2019-04-27T14:47:18.789Z,15.50
2019-04-27T14:49:49.148Z,15.60
2019-04-27T14:52:19.044Z,15.60
2019-04-27T14:54:50.712Z,15.60
2019-04-27T14:57:20.500Z,15.50
2019-04-27T14:59:49.831Z,15.40
2019-04-27T15:02:18.787Z,15.40
2019-04-27T15:04:47.705Z,15.40
2019-04-27T15:07:16.528Z,15.40
2019-04-27T15:09:45.343Z,15.40
2019-04-27T15:12:15.756Z,15.30
2019-04-27T15:14:45.136Z,15.30
2019-04-27T15:17:17.730Z,15.30
2019-04-27T15:19:52.725Z,15.20
2019-04-27T15:22:25.655Z,15.20
2019-04-27T15:25:06.391Z,15.20
2019-04-27T15:27:37.191Z,15.10
2019-04-27T15:30:25.849Z,15.10
2019-04-27T15:33:15.995Z,15.10
2019-04-27T15:35:46.593Z,15.10
2019-04-27T15:38:20.353Z,15.10
2019-04-27T15:41:09.770Z,15.10
2019-04-27T15:43:40.500Z,15.00
2019-04-27T15:46:09.340Z,15.00
2019-04-27T15:48:38.627Z,15.00
2019-04-27T15:51:16.241Z,15.00
2019-04-27T15:53:40.833Z,15.00
2019-04-27T15:56:09.409Z,15.00
2019-04-27T15:58:38.583Z,15.00
2019-04-27T16:01:11.278Z,15.00
2019-04-27T16:03:39.120Z,15.00
2019-04-27T16:06:11.691Z,15.00
2019-04-27T16:08:45.265Z,15.00
2019-04-27T16:11:16.094Z,15.00
2019-04-27T16:13:40.255Z,15.00
2019-04-27T16:16:09.354Z,14.90
2019-04-27T16:18:38.817Z,14.90
2019-04-27T16:21:10.774Z,14.80
2019-04-27T16:23:42.820Z,14.70
2019-04-27T16:26:15.014Z,14.70
2019-04-27T16:28:42.999Z,14.60
2019-04-27T16:31:12.657Z,14.60
2019-04-27T16:33:41.420Z,14.60
2019-04-27T16:36:10.848Z,14.50
2019-04-27T16:38:52.640Z,14.50
2019-04-27T16:41:21.396Z,14.40
2019-04-27T16:43:50.609Z,14.40
2019-04-27T16:46:21.416Z,14.30
2019-04-27T16:48:49.914Z,14.10
2019-04-27T16:51:18.831Z,14.10
2019-04-27T16:53:48.092Z,14.00
2019-04-27T16:56:20.482Z,13.90
2019-04-27T16:58:56.250Z,13.90
2019-04-27T17:01:30.002Z,13.80
2019-04-27T17:03:59.357Z,13.80
2019-04-27T17:06:29.656Z,13.80
2019-04-27T17:09:05.425Z,13.80
2019-04-27T17:11:30.269Z,13.80
2019-04-27T17:14:15.153Z,13.70
2019-04-27T17:17:12.480Z,13.70
2019-04-27T17:19:45.879Z,13.60
2019-04-27T17:22:16.331Z,13.60
2019-04-27T17:24:47.419Z,13.50
2019-04-27T17:27:22.851Z,13.50
2019-04-27T17:29:57.372Z,13.50
2019-04-27T17:32:38.948Z,13.50
2019-04-27T17:35:12.957Z,13.50
2019-04-27T17:37:39.091Z,13.50
2019-04-27T17:40:09.534Z,13.50
2019-04-27T17:42:39.218Z,13.50
2019-04-27T17:45:09.025Z,13.50
2019-04-27T17:47:38.882Z,13.50
2019-04-27T17:50:09.300Z,13.40
2019-04-27T17:52:39.780Z,13.30
2019-04-27T17:55:09.061Z,13.20
2019-04-27T17:57:39.192Z,13.10
2019-04-27T18:00:09.607Z,12.90
2019-04-27T18:02:42.427Z,12.80
2019-04-27T18:05:13.647Z,12.70
2019-04-27T18:07:44.138Z,12.60
2019-04-27T18:10:12.923Z,12.60
2019-04-27T18:12:44.495Z,12.50
2019-04-27T18:15:14.523Z,12.40
2019-04-27T18:17:50.045Z,12.40
2019-04-27T18:20:20.687Z,12.30
2019-04-27T18:22:53.612Z,12.30
2019-04-27T18:25:22.503Z,12.30
2019-04-27T18:28:08.056Z,12.30
2019-04-27T18:31:01.431Z,12.20
2019-04-27T18:33:32.711Z,12.20
2019-04-27T18:36:05.618Z,12.20
2019-04-27T18:38:35.410Z,12.20
2019-04-27T18:41:07.999Z,12.20
2019-04-27T18:43:33.983Z,12.20
2019-04-27T18:46:22.033Z,12.10
2019-04-27T18:49:05.700Z,12.10
2019-04-27T18:51:41.394Z,12.10
2019-04-27T18:54:10.521Z,12.10
2019-04-27T18:56:41.554Z,12.10
2019-04-27T18:59:09.967Z,12.00
2019-04-27T19:01:38.750Z,12.00
2019-04-27T19:04:08.683Z,12.00
2019-04-27T19:06:39.094Z,11.90
2019-04-27T19:09:08.509Z,11.90
2019-04-27T19:11:38.443Z,11.90
2019-04-27T19:14:08.282Z,11.80
2019-04-27T19:16:38.343Z,11.80
2019-04-27T19:19:08.714Z,11.90
2019-04-27T19:21:39.262Z,11.80
2019-04-27T19:24:09.057Z,11.80
2019-04-27T19:26:49.121Z,11.80
2019-04-27T19:29:21.684Z,11.80
2019-04-27T19:31:54.911Z,11.70
2019-04-27T19:34:24.011Z,11.70
2019-04-27T19:36:53.515Z,11.60
2019-04-27T19:39:22.738Z,11.60
2019-04-27T19:42:00.291Z,11.60
2019-04-27T19:44:22.472Z,11.50
2019-04-27T19:46:51.966Z,11.50
2019-04-27T19:49:21.363Z,11.50
2019-04-27T19:51:50.478Z,11.50
2019-04-27T19:54:19.511Z,11.50
2019-04-27T19:56:50.012Z,11.40
2019-04-27T19:59:28.072Z,11.40
2019-04-27T20:01:59.408Z,11.40
2019-04-27T20:04:30.803Z,11.30
2019-04-27T20:07:00.121Z,11.30
2019-04-27T20:09:49.996Z,11.40
2019-04-27T20:12:18.688Z,11.30
2019-04-27T20:14:56.599Z,11.40
2019-04-27T20:17:26.783Z,11.30
2019-04-27T20:19:56.197Z,11.30
2019-04-27T20:22:25.327Z,11.30
2019-04-27T20:24:55.074Z,11.30
2019-04-27T20:27:23.837Z,11.30
2019-04-27T20:29:52.923Z,11.30
2019-04-27T20:32:21.835Z,11.30
2019-04-27T20:34:51.315Z,11.30
2019-04-27T20:37:21.041Z,11.20
2019-04-27T20:39:51.400Z,11.20
2019-04-27T20:42:21.259Z,11.20
2019-04-27T20:44:51.574Z,11.20
2019-04-27T20:47:21.178Z,11.20
2019-04-27T20:49:50.315Z,11.20
2019-04-27T20:52:34.783Z,11.20
2019-04-27T20:55:03.858Z,11.20
2019-04-27T20:57:32.731Z,11.10
2019-04-27T21:00:02.111Z,11.10
2019-04-27T21:02:53.263Z,11.10
2019-04-27T21:05:34.383Z,11.10
2019-04-27T21:08:07.544Z,11.10
2019-04-27T21:10:36.727Z,11.10
2019-04-27T21:13:05.624Z,11.00
2019-04-27T21:15:34.643Z,11.00
2019-04-27T21:18:03.437Z,11.00
2019-04-27T21:20:32.556Z,11.00
2019-04-27T21:23:01.966Z,11.00
2019-04-27T21:25:33.535Z,11.00
2019-04-27T21:28:14.854Z,11.00
2019-04-27T21:30:33.417Z,11.00
2019-04-27T21:33:02.467Z,11.00
2019-04-27T21:35:31.754Z,11.00
2019-04-27T21:38:01.554Z,11.00
2019-04-27T21:40:32.401Z,11.00
2019-04-27T21:43:01.247Z,10.90
2019-04-27T21:45:31.775Z,10.90
2019-04-27T21:48:00.964Z,10.90
2019-04-27T21:50:31.492Z,10.80
2019-04-27T21:53:57.251Z,10.90
2019-04-27T21:56:26.790Z,10.90
2019-04-27T21:58:55.648Z,10.90
2019-04-27T22:01:31.859Z,10.80
2019-04-27T22:04:01.843Z,10.80
2019-04-27T22:06:30.678Z,10.80
2019-04-27T22:09:01.313Z,10.80
2019-04-27T22:11:31.909Z,10.80
2019-04-27T22:14:01.395Z,10.70
2019-04-27T22:16:31.517Z,10.80
2019-04-27T22:19:01.965Z,10.80
2019-04-27T22:21:31.670Z,10.80
2019-04-27T22:24:18.850Z,10.80
2019-04-27T22:26:48.224Z,10.70
2019-04-27T22:29:17.599Z,10.70
2019-04-27T22:31:46.773Z,10.70
2019-04-27T22:34:15.686Z,10.70
2019-04-27T22:36:44.845Z,10.70
2019-04-27T22:39:28.794Z,10.70
2019-04-27T22:42:16.335Z,10.60
2019-04-27T22:44:52.771Z,10.70
2019-04-27T22:47:21.705Z,10.60
2019-04-27T22:49:51.308Z,10.60
2019-04-27T22:52:21.854Z,10.60
2019-04-27T22:54:51.411Z,10.60
2019-04-27T22:57:42.369Z,10.60
2019-04-27T23:00:31.077Z,10.60
2019-04-27T23:03:03.292Z,10.60
2019-04-27T23:05:32.908Z,10.60
2019-04-27T23:08:02.124Z,10.60
2019-04-27T23:10:31.572Z,10.50
2019-04-27T23:13:01.026Z,10.60
2019-04-27T23:15:51.719Z,10.50
2019-04-27T23:18:22.658Z,10.50
2019-04-27T23:20:52.327Z,10.50
2019-04-27T23:23:21.827Z,10.60
2019-04-27T23:25:51.405Z,10.60
2019-04-27T23:28:20.872Z,10.60
2019-04-27T23:31:15.925Z,10.70
2019-04-27T23:33:47.973Z,10.70
2019-04-27T23:36:17.134Z,10.70
2019-04-27T23:38:46.363Z,10.70
2019-04-27T23:41:15.273Z,10.70
2019-04-27T23:43:44.674Z,10.70
2019-04-27T23:46:13.958Z,10.70
2019-04-27T23:48:43.202Z,10.70
2019-04-27T23:51:40.824Z,10.60
2019-04-27T23:54:11.545Z,10.70
2019-04-27T23:56:42.019Z,10.70
2019-04-27T23:59:23.861Z,10.60
